sensor_id;sensor_type;location;lat;lon;timestamp;P1;durP1;ratioP1;P2;durP2;ratioP2
63536;SDS011;49686;51.880;5.632;2022-07-23T00:02:08;5.57;;;2.33;;
63536;SDS011;49686;51.880;5.632;2022-07-23T00:04:35;5.72;;;2.65;;
63536;SDS011;49686;51.880;5.632;2022-07-23T00:07:03;5.80;;;3.03;;
63536;SDS011;49686;51.880;5.632;2022-07-23T00:09:29;6.30;;;3.08;;
63536;SDS011;49686;51.880;5.632;2022-07-23T00:11:57;5.75;;;3.40;;
63536;SDS011;49686;51.880;5.632;2022-07-23T00:14:25;5.63;;;4.03;;
63536;SDS011;49686;51.880;5.632;2022-07-23T00:16:52;7.10;;;4.28;;
63536;SDS011;49686;51.880;5.632;2022-07-23T00:19:18;7.00;;;3.78;;
63536;SDS011;49686;51.880;5.632;2022-07-23T00:21:46;5.80;;;4.25;;
63536;SDS011;49686;51.880;5.632;2022-07-23T00:24:13;7.25;;;4.28;;
63536;SDS011;49686;51.880;5.632;2022-07-23T00:26:39;8.57;;;5.03;;
63536;SDS011;49686;51.880;5.632;2022-07-23T00:29:08;7.80;;;4.65;;
63536;SDS011;49686;51.880;5.632;2022-07-23T00:31:35;6.80;;;4.93;;
63536;SDS011;49686;51.880;5.632;2022-07-23T00:34:02;9.10;;;5.32;;
63536;SDS011;49686;51.880;5.632;2022-07-23T00:36:29;5.88;;;5.13;;
63536;SDS011;49686;51.880;5.632;2022-07-23T00:38:56;7.70;;;5.07;;
63536;SDS011;49686;51.880;5.632;2022-07-23T00:41:23;9.45;;;5.75;;
63536;SDS011;49686;51.880;5.632;2022-07-23T00:43:51;8.25;;;5.18;;
63536;SDS011;49686;51.880;5.632;2022-07-23T00:46:20;6.72;;;5.38;;
63536;SDS011;49686;51.880;5.632;2022-07-23T00:48:47;11.00;;;5.60;;
63536;SDS011;49686;51.880;5.632;2022-07-23T00:51:15;9.30;;;5.93;;
63536;SDS011;49686;51.880;5.632;2022-07-23T00:53:42;8.85;;;5.95;;
63536;SDS011;49686;51.880;5.632;2022-07-23T00:56:10;7.90;;;5.20;;
63536;SDS011;49686;51.880;5.632;2022-07-23T00:58:37;7.40;;;5.10;;
63536;SDS011;49686;51.880;5.632;2022-07-23T01:01:07;6.72;;;5.03;;
63536;SDS011;49686;51.880;5.632;2022-07-23T01:03:35;9.30;;;5.97;;
63536;SDS011;49686;51.880;5.632;2022-07-23T01:06:03;9.27;;;5.75;;
63536;SDS011;49686;51.880;5.632;2022-07-23T01:08:30;9.95;;;5.80;;
63536;SDS011;49686;51.880;5.632;2022-07-23T01:10:57;8.30;;;5.55;;
63536;SDS011;49686;51.880;5.632;2022-07-23T01:13:25;9.00;;;6.32;;
63536;SDS011;49686;51.880;5.632;2022-07-23T01:15:52;9.90;;;6.00;;
63536;SDS011;49686;51.880;5.632;2022-07-23T01:18:18;11.13;;;5.75;;
63536;SDS011;49686;51.880;5.632;2022-07-23T01:20:47;9.18;;;5.85;;
63536;SDS011;49686;51.880;5.632;2022-07-23T01:23:15;11.70;;;6.75;;
63536;SDS011;49686;51.880;5.632;2022-07-23T01:25:47;7.83;;;5.70;;
63536;SDS011;49686;51.880;5.632;2022-07-23T01:28:15;8.98;;;6.28;;
63536;SDS011;49686;51.880;5.632;2022-07-23T01:30:41;12.45;;;6.03;;
63536;SDS011;49686;51.880;5.632;2022-07-23T01:33:08;7.70;;;5.03;;
63536;SDS011;49686;51.880;5.632;2022-07-23T01:35:36;7.68;;;5.40;;
63536;SDS011;49686;51.880;5.632;2022-07-23T01:38:02;7.90;;;5.18;;
63536;SDS011;49686;51.880;5.632;2022-07-23T01:40:31;8.82;;;5.53;;
63536;SDS011;49686;51.880;5.632;2022-07-23T01:42:59;9.38;;;5.68;;
63536;SDS011;49686;51.880;5.632;2022-07-23T01:45:26;8.07;;;5.00;;
63536;SDS011;49686;51.880;5.632;2022-07-23T01:47:53;7.82;;;6.07;;
63536;SDS011;49686;51.880;5.632;2022-07-23T01:50:20;7.00;;;4.82;;
63536;SDS011;49686;51.880;5.632;2022-07-23T01:52:47;8.98;;;5.93;;
63536;SDS011;49686;51.880;5.632;2022-07-23T01:55:14;6.75;;;4.72;;
63536;SDS011;49686;51.880;5.632;2022-07-23T01:57:46;7.78;;;4.88;;
63536;SDS011;49686;51.880;5.632;2022-07-23T02:00:13;10.05;;;4.97;;
63536;SDS011;49686;51.880;5.632;2022-07-23T02:02:40;7.93;;;4.78;;
63536;SDS011;49686;51.880;5.632;2022-07-23T02:05:08;10.02;;;5.78;;
63536;SDS011;49686;51.880;5.632;2022-07-23T02:07:35;6.82;;;5.00;;
63536;SDS011;49686;51.880;5.632;2022-07-23T02:10:02;10.68;;;5.50;;
63536;SDS011;49686;51.880;5.632;2022-07-23T02:12:30;7.88;;;5.03;;
63536;SDS011;49686;51.880;5.632;2022-07-23T02:14:58;10.57;;;4.57;;
63536;SDS011;49686;51.880;5.632;2022-07-23T02:17:25;8.07;;;4.83;;
63536;SDS011;49686;51.880;5.632;2022-07-23T02:19:52;7.70;;;4.40;;
63536;SDS011;49686;51.880;5.632;2022-07-23T02:22:19;9.15;;;4.50;;
63536;SDS011;49686;51.880;5.632;2022-07-23T02:24:46;5.70;;;4.43;;
63536;SDS011;49686;51.880;5.632;2022-07-23T02:27:13;9.73;;;4.35;;
63536;SDS011;49686;51.880;5.632;2022-07-23T02:29:40;5.63;;;4.22;;
63536;SDS011;49686;51.880;5.632;2022-07-23T02:32:08;7.70;;;3.78;;
63536;SDS011;49686;51.880;5.632;2022-07-23T02:34:36;5.57;;;4.20;;
63536;SDS011;49686;51.880;5.632;2022-07-23T02:37:03;6.18;;;4.45;;
63536;SDS011;49686;51.880;5.632;2022-07-23T02:39:29;5.53;;;4.40;;
63536;SDS011;49686;51.880;5.632;2022-07-23T02:41:57;5.95;;;4.60;;
63536;SDS011;49686;51.880;5.632;2022-07-23T02:44:24;7.10;;;4.13;;
63536;SDS011;49686;51.880;5.632;2022-07-23T02:46:50;11.05;;;4.70;;
63536;SDS011;49686;51.880;5.632;2022-07-23T02:49:19;6.53;;;4.30;;
63536;SDS011;49686;51.880;5.632;2022-07-23T02:51:46;7.38;;;4.43;;
63536;SDS011;49686;51.880;5.632;2022-07-23T02:54:13;8.00;;;4.43;;
63536;SDS011;49686;51.880;5.632;2022-07-23T02:56:41;6.57;;;4.40;;
63536;SDS011;49686;51.880;5.632;2022-07-23T02:59:07;6.05;;;4.60;;
63536;SDS011;49686;51.880;5.632;2022-07-23T03:01:34;5.40;;;4.22;;
63536;SDS011;49686;51.880;5.632;2022-07-23T03:04:02;8.98;;;4.82;;
63536;SDS011;49686;51.880;5.632;2022-07-23T03:06:30;8.02;;;4.57;;
63536;SDS011;49686;51.880;5.632;2022-07-23T03:08:57;10.87;;;4.90;;
63536;SDS011;49686;51.880;5.632;2022-07-23T03:11:25;11.73;;;4.95;;
63536;SDS011;49686;51.880;5.632;2022-07-23T03:13:52;5.03;;;4.40;;
63536;SDS011;49686;51.880;5.632;2022-07-23T03:16:18;9.93;;;4.63;;
63536;SDS011;49686;51.880;5.632;2022-07-23T03:18:46;6.90;;;4.47;;
63536;SDS011;49686;51.880;5.632;2022-07-23T03:21:13;9.57;;;5.00;;
63536;SDS011;49686;51.880;5.632;2022-07-23T03:23:41;6.53;;;4.32;;
63536;SDS011;49686;51.880;5.632;2022-07-23T03:26:09;6.63;;;4.38;;
63536;SDS011;49686;51.880;5.632;2022-07-23T03:28:36;8.27;;;4.75;;
63536;SDS011;49686;51.880;5.632;2022-07-23T03:31:03;9.10;;;4.82;;
63536;SDS011;49686;51.880;5.632;2022-07-23T03:33:30;7.10;;;4.55;;
63536;SDS011;49686;51.880;5.632;2022-07-23T03:35:57;8.63;;;4.13;;
63536;SDS011;49686;51.880;5.632;2022-07-23T03:38:25;5.90;;;4.43;;
63536;SDS011;49686;51.880;5.632;2022-07-23T03:40:54;6.82;;;4.43;;
63536;SDS011;49686;51.880;5.632;2022-07-23T03:43:21;9.17;;;5.00;;
63536;SDS011;49686;51.880;5.632;2022-07-23T03:45:47;8.90;;;5.75;;
63536;SDS011;49686;51.880;5.632;2022-07-23T03:48:15;6.32;;;4.60;;
63536;SDS011;49686;51.880;5.632;2022-07-23T03:50:42;8.73;;;4.22;;
63536;SDS011;49686;51.880;5.632;2022-07-23T03:53:08;9.52;;;4.25;;
63536;SDS011;49686;51.880;5.632;2022-07-23T03:55:36;6.55;;;4.43;;
63536;SDS011;49686;51.880;5.632;2022-07-23T03:58:04;11.07;;;5.10;;
63536;SDS011;49686;51.880;5.632;2022-07-23T04:00:31;10.03;;;5.10;;
63536;SDS011;49686;51.880;5.632;2022-07-23T04:02:58;7.70;;;4.75;;
63536;SDS011;49686;51.880;5.632;2022-07-23T04:05:25;7.90;;;5.00;;
63536;SDS011;49686;51.880;5.632;2022-07-23T04:07:52;9.60;;;4.82;;
63536;SDS011;49686;51.880;5.632;2022-07-23T04:10:19;8.07;;;4.72;;
63536;SDS011;49686;51.880;5.632;2022-07-23T04:12:46;9.18;;;4.65;;
63536;SDS011;49686;51.880;5.632;2022-07-23T04:15:14;11.48;;;5.60;;
63536;SDS011;49686;51.880;5.632;2022-07-23T04:17:42;7.75;;;4.82;;
63536;SDS011;49686;51.880;5.632;2022-07-23T04:20:09;8.30;;;4.75;;
63536;SDS011;49686;51.880;5.632;2022-07-23T04:22:36;5.93;;;4.72;;
63536;SDS011;49686;51.880;5.632;2022-07-23T04:25:04;9.65;;;4.38;;
63536;SDS011;49686;51.880;5.632;2022-07-23T04:27:32;9.27;;;4.88;;
63536;SDS011;49686;51.880;5.632;2022-07-23T04:29:59;7.70;;;4.80;;
63536;SDS011;49686;51.880;5.632;2022-07-23T04:32:27;7.95;;;5.18;;
63536;SDS011;49686;51.880;5.632;2022-07-23T04:34:54;8.90;;;5.60;;
63536;SDS011;49686;51.880;5.632;2022-07-23T04:37:21;9.75;;;5.40;;
63536;SDS011;49686;51.880;5.632;2022-07-23T04:39:48;9.23;;;6.10;;
63536;SDS011;49686;51.880;5.632;2022-07-23T04:42:15;10.90;;;5.85;;
63536;SDS011;49686;51.880;5.632;2022-07-23T04:44:42;10.43;;;4.68;;
63536;SDS011;49686;51.880;5.632;2022-07-23T04:47:09;5.70;;;4.07;;
63536;SDS011;49686;51.880;5.632;2022-07-23T04:49:40;7.57;;;3.83;;
63536;SDS011;49686;51.880;5.632;2022-07-23T04:52:07;4.68;;;3.58;;
63536;SDS011;49686;51.880;5.632;2022-07-23T04:54:34;7.78;;;3.80;;
63536;SDS011;49686;51.880;5.632;2022-07-23T04:57:01;5.75;;;2.97;;
63536;SDS011;49686;51.880;5.632;2022-07-23T04:59:29;8.50;;;3.08;;
63536;SDS011;49686;51.880;5.632;2022-07-23T05:01:56;8.70;;;3.33;;
63536;SDS011;49686;51.880;5.632;2022-07-23T05:04:24;4.68;;;3.03;;
63536;SDS011;49686;51.880;5.632;2022-07-23T05:06:52;4.28;;;2.88;;
63536;SDS011;49686;51.880;5.632;2022-07-23T05:09:19;6.60;;;3.22;;
63536;SDS011;49686;51.880;5.632;2022-07-23T05:11:46;4.55;;;2.80;;
63536;SDS011;49686;51.880;5.632;2022-07-23T05:14:13;3.58;;;2.50;;
63536;SDS011;49686;51.880;5.632;2022-07-23T05:16:40;3.20;;;2.50;;
63536;SDS011;49686;51.880;5.632;2022-07-23T05:19:07;6.05;;;2.50;;
63536;SDS011;49686;51.880;5.632;2022-07-23T05:21:34;4.30;;;2.60;;
63536;SDS011;49686;51.880;5.632;2022-07-23T05:24:02;4.72;;;2.45;;
63536;SDS011;49686;51.880;5.632;2022-07-23T05:26:30;2.90;;;2.70;;
63536;SDS011;49686;51.880;5.632;2022-07-23T05:28:57;3.95;;;2.38;;
63536;SDS011;49686;51.880;5.632;2022-07-23T05:31:24;5.38;;;2.67;;
63536;SDS011;49686;51.880;5.632;2022-07-23T05:33:51;4.75;;;2.47;;
63536;SDS011;49686;51.880;5.632;2022-07-23T05:36:18;5.03;;;2.20;;
63536;SDS011;49686;51.880;5.632;2022-07-23T05:38:45;3.95;;;2.65;;
63536;SDS011;49686;51.880;5.632;2022-07-23T05:41:14;7.10;;;2.25;;
63536;SDS011;49686;51.880;5.632;2022-07-23T05:43:40;4.20;;;2.35;;
63536;SDS011;49686;51.880;5.632;2022-07-23T05:46:07;4.70;;;2.70;;
63536;SDS011;49686;51.880;5.632;2022-07-23T05:48:35;6.38;;;2.95;;
63536;SDS011;49686;51.880;5.632;2022-07-23T05:51:02;3.63;;;2.38;;
63536;SDS011;49686;51.880;5.632;2022-07-23T05:53:28;4.13;;;2.42;;
63536;SDS011;49686;51.880;5.632;2022-07-23T05:55:56;4.13;;;2.47;;
63536;SDS011;49686;51.880;5.632;2022-07-23T05:58:24;5.13;;;2.30;;
63536;SDS011;49686;51.880;5.632;2022-07-23T06:00:51;4.18;;;2.40;;
63536;SDS011;49686;51.880;5.632;2022-07-23T06:03:18;3.33;;;2.15;;
63536;SDS011;49686;51.880;5.632;2022-07-23T06:05:45;4.20;;;2.72;;
63536;SDS011;49686;51.880;5.632;2022-07-23T06:08:12;4.30;;;2.60;;
63536;SDS011;49686;51.880;5.632;2022-07-23T06:10:39;3.78;;;2.85;;
63536;SDS011;49686;51.880;5.632;2022-07-23T06:13:06;4.72;;;2.63;;
63536;SDS011;49686;51.880;5.632;2022-07-23T06:15:34;4.18;;;2.30;;
63536;SDS011;49686;51.880;5.632;2022-07-23T06:18:02;5.63;;;3.00;;
63536;SDS011;49686;51.880;5.632;2022-07-23T06:20:29;3.65;;;2.33;;
63536;SDS011;49686;51.880;5.632;2022-07-23T06:22:56;3.25;;;2.60;;
63536;SDS011;49686;51.880;5.632;2022-07-23T06:25:24;4.95;;;2.20;;
63536;SDS011;49686;51.880;5.632;2022-07-23T06:27:50;4.18;;;2.47;;
63536;SDS011;49686;51.880;5.632;2022-07-23T06:30:17;4.78;;;2.28;;
63536;SDS011;49686;51.880;5.632;2022-07-23T06:32:47;4.32;;;2.35;;
63536;SDS011;49686;51.880;5.632;2022-07-23T06:35:15;5.38;;;2.33;;
63536;SDS011;49686;51.880;5.632;2022-07-23T06:37:44;4.63;;;2.00;;
63536;SDS011;49686;51.880;5.632;2022-07-23T06:40:14;4.80;;;2.00;;
63536;SDS011;49686;51.880;5.632;2022-07-23T06:42:41;3.85;;;1.52;;
63536;SDS011;49686;51.880;5.632;2022-07-23T06:45:08;5.63;;;1.58;;
63536;SDS011;49686;51.880;5.632;2022-07-23T06:47:36;3.10;;;1.55;;
63536;SDS011;49686;51.880;5.632;2022-07-23T06:50:04;2.97;;;1.65;;
63536;SDS011;49686;51.880;5.632;2022-07-23T06:52:32;4.68;;;2.10;;
63536;SDS011;49686;51.880;5.632;2022-07-23T06:55:03;5.95;;;2.20;;
63536;SDS011;49686;51.880;5.632;2022-07-23T06:57:30;3.22;;;1.88;;
63536;SDS011;49686;51.880;5.632;2022-07-23T07:00:00;3.03;;;1.75;;
63536;SDS011;49686;51.880;5.632;2022-07-23T07:02:27;3.13;;;1.63;;
63536;SDS011;49686;51.880;5.632;2022-07-23T07:04:54;3.55;;;1.40;;
63536;SDS011;49686;51.880;5.632;2022-07-23T07:07:26;4.85;;;1.50;;
63536;SDS011;49686;51.880;5.632;2022-07-23T07:09:53;4.32;;;1.98;;
63536;SDS011;49686;51.880;5.632;2022-07-23T07:12:20;3.55;;;1.80;;
63536;SDS011;49686;51.880;5.632;2022-07-23T07:14:46;5.43;;;2.45;;
63536;SDS011;49686;51.880;5.632;2022-07-23T07:17:14;5.75;;;2.00;;
63536;SDS011;49686;51.880;5.632;2022-07-23T07:19:41;2.75;;;1.83;;
63536;SDS011;49686;51.880;5.632;2022-07-23T07:22:08;4.32;;;2.13;;
63536;SDS011;49686;51.880;5.632;2022-07-23T07:24:36;4.57;;;2.17;;
63536;SDS011;49686;51.880;5.632;2022-07-23T07:27:04;3.65;;;2.20;;
63536;SDS011;49686;51.880;5.632;2022-07-23T07:29:30;4.57;;;2.10;;
63536;SDS011;49686;51.880;5.632;2022-07-23T07:31:58;5.20;;;2.00;;
63536;SDS011;49686;51.880;5.632;2022-07-23T07:34:25;5.82;;;1.90;;
63536;SDS011;49686;51.880;5.632;2022-07-23T07:36:52;3.47;;;2.10;;
63536;SDS011;49686;51.880;5.632;2022-07-23T07:39:19;3.08;;;1.90;;
63536;SDS011;49686;51.880;5.632;2022-07-23T07:41:47;3.88;;;2.35;;
63536;SDS011;49686;51.880;5.632;2022-07-23T07:44:14;3.38;;;2.17;;
63536;SDS011;49686;51.880;5.632;2022-07-23T07:46:42;5.32;;;2.10;;
63536;SDS011;49686;51.880;5.632;2022-07-23T07:49:08;3.85;;;2.30;;
63536;SDS011;49686;51.880;5.632;2022-07-23T07:51:42;6.65;;;2.13;;
63536;SDS011;49686;51.880;5.632;2022-07-23T07:56:38;3.40;;;1.88;;
63536;SDS011;49686;51.880;5.632;2022-07-23T07:59:08;4.18;;;2.40;;
63536;SDS011;49686;51.880;5.632;2022-07-23T08:01:36;4.07;;;2.15;;
63536;SDS011;49686;51.880;5.632;2022-07-23T08:04:03;9.00;;;2.75;;
63536;SDS011;49686;51.880;5.632;2022-07-23T08:06:31;3.17;;;2.20;;
63536;SDS011;49686;51.880;5.632;2022-07-23T08:08:58;4.72;;;2.40;;
63536;SDS011;49686;51.880;5.632;2022-07-23T08:11:25;3.88;;;2.60;;
63536;SDS011;49686;51.880;5.632;2022-07-23T08:13:52;5.80;;;2.97;;
63536;SDS011;49686;51.880;5.632;2022-07-23T08:16:20;7.40;;;2.50;;
63536;SDS011;49686;51.880;5.632;2022-07-23T08:18:47;4.35;;;2.40;;
63536;SDS011;49686;51.880;5.632;2022-07-23T08:21:15;3.67;;;1.98;;
63536;SDS011;49686;51.880;5.632;2022-07-23T08:23:41;4.28;;;2.40;;
63536;SDS011;49686;51.880;5.632;2022-07-23T08:26:08;7.43;;;2.70;;
63536;SDS011;49686;51.880;5.632;2022-07-23T08:28:36;6.00;;;2.40;;
63536;SDS011;49686;51.880;5.632;2022-07-23T08:31:03;3.92;;;1.95;;
63536;SDS011;49686;51.880;5.632;2022-07-23T08:33:31;3.28;;;2.28;;
63536;SDS011;49686;51.880;5.632;2022-07-23T08:36:01;5.45;;;2.22;;
63536;SDS011;49686;51.880;5.632;2022-07-23T08:38:30;3.38;;;2.08;;
63536;SDS011;49686;51.880;5.632;2022-07-23T08:40:57;3.72;;;2.30;;
63536;SDS011;49686;51.880;5.632;2022-07-23T08:43:25;4.90;;;2.50;;
63536;SDS011;49686;51.880;5.632;2022-07-23T08:45:53;4.25;;;2.47;;
63536;SDS011;49686;51.880;5.632;2022-07-23T08:48:22;5.63;;;2.40;;
63536;SDS011;49686;51.880;5.632;2022-07-23T08:50:52;3.83;;;2.50;;
63536;SDS011;49686;51.880;5.632;2022-07-23T08:53:24;3.95;;;2.50;;
63536;SDS011;49686;51.880;5.632;2022-07-23T08:55:53;3.80;;;2.97;;
63536;SDS011;49686;51.880;5.632;2022-07-23T08:58:21;5.90;;;3.00;;
63536;SDS011;49686;51.880;5.632;2022-07-23T09:00:54;6.40;;;2.95;;
63536;SDS011;49686;51.880;5.632;2022-07-23T09:03:23;3.78;;;2.42;;
63536;SDS011;49686;51.880;5.632;2022-07-23T09:05:54;2.78;;;2.00;;
63536;SDS011;49686;51.880;5.632;2022-07-23T09:08:23;5.28;;;2.70;;
63536;SDS011;49686;51.880;5.632;2022-07-23T09:10:51;4.05;;;2.65;;
63536;SDS011;49686;51.880;5.632;2022-07-23T09:13:24;5.95;;;3.25;;
63536;SDS011;49686;51.880;5.632;2022-07-23T09:16:00;8.60;;;3.20;;
63536;SDS011;49686;51.880;5.632;2022-07-23T09:18:32;5.18;;;2.45;;
63536;SDS011;49686;51.880;5.632;2022-07-23T09:21:07;14.40;;;3.15;;
63536;SDS011;49686;51.880;5.632;2022-07-23T09:23:36;5.85;;;2.85;;
63536;SDS011;49686;51.880;5.632;2022-07-23T09:26:10;6.13;;;2.20;;
63536;SDS011;49686;51.880;5.632;2022-07-23T09:28:54;4.97;;;3.00;;
63536;SDS011;49686;51.880;5.632;2022-07-23T09:31:30;4.40;;;2.67;;
63536;SDS011;49686;51.880;5.632;2022-07-23T09:34:06;3.30;;;2.90;;
63536;SDS011;49686;51.880;5.632;2022-07-23T09:36:36;3.65;;;2.47;;
63536;SDS011;49686;51.880;5.632;2022-07-23T09:39:04;6.70;;;2.70;;
63536;SDS011;49686;51.880;5.632;2022-07-23T09:41:34;4.07;;;2.83;;
63536;SDS011;49686;51.880;5.632;2022-07-23T09:44:10;4.55;;;2.20;;
63536;SDS011;49686;51.880;5.632;2022-07-23T09:46:39;3.47;;;2.50;;
63536;SDS011;49686;51.880;5.632;2022-07-23T09:49:11;7.72;;;2.47;;
63536;SDS011;49686;51.880;5.632;2022-07-23T09:51:45;4.00;;;2.50;;
63536;SDS011;49686;51.880;5.632;2022-07-23T09:54:21;7.40;;;2.60;;
63536;SDS011;49686;51.880;5.632;2022-07-23T09:56:50;6.15;;;2.53;;
63536;SDS011;49686;51.880;5.632;2022-07-23T09:59:18;3.50;;;2.15;;
63536;SDS011;49686;51.880;5.632;2022-07-23T10:01:50;3.50;;;2.30;;
63536;SDS011;49686;51.880;5.632;2022-07-23T10:06:48;4.97;;;2.63;;
63536;SDS011;49686;51.880;5.632;2022-07-23T10:09:20;3.85;;;2.50;;
63536;SDS011;49686;51.880;5.632;2022-07-23T10:11:50;3.25;;;2.53;;
63536;SDS011;49686;51.880;5.632;2022-07-23T10:14:20;4.93;;;2.22;;
63536;SDS011;49686;51.880;5.632;2022-07-23T10:16:47;4.85;;;2.40;;
63536;SDS011;49686;51.880;5.632;2022-07-23T10:19:14;5.32;;;2.40;;
63536;SDS011;49686;51.880;5.632;2022-07-23T10:21:45;4.50;;;2.40;;
63536;SDS011;49686;51.880;5.632;2022-07-23T10:24:17;4.15;;;2.65;;
63536;SDS011;49686;51.880;5.632;2022-07-23T10:26:52;3.13;;;2.10;;
63536;SDS011;49686;51.880;5.632;2022-07-23T10:29:30;4.93;;;2.55;;
63536;SDS011;49686;51.880;5.632;2022-07-23T10:32:14;3.67;;;2.10;;
63536;SDS011;49686;51.880;5.632;2022-07-23T10:34:51;4.05;;;2.50;;
63536;SDS011;49686;51.880;5.632;2022-07-23T10:37:28;2.95;;;2.20;;
63536;SDS011;49686;51.880;5.632;2022-07-23T10:40:08;4.90;;;2.13;;
63536;SDS011;49686;51.880;5.632;2022-07-23T10:42:37;4.25;;;2.60;;
63536;SDS011;49686;51.880;5.632;2022-07-23T10:47:49;4.20;;;2.60;;
63536;SDS011;49686;51.880;5.632;2022-07-23T10:50:17;3.13;;;2.30;;
63536;SDS011;49686;51.880;5.632;2022-07-23T10:55:51;3.88;;;2.33;;
63536;SDS011;49686;51.880;5.632;2022-07-23T10:58:19;2.65;;;1.90;;
63536;SDS011;49686;51.880;5.632;2022-07-23T11:00:48;3.08;;;1.80;;
63536;SDS011;49686;51.880;5.632;2022-07-23T11:03:27;3.88;;;2.08;;
63536;SDS011;49686;51.880;5.632;2022-07-23T11:05:57;4.05;;;2.58;;
63536;SDS011;49686;51.880;5.632;2022-07-23T11:08:24;3.30;;;1.90;;
63536;SDS011;49686;51.880;5.632;2022-07-23T11:10:54;5.03;;;2.28;;
63536;SDS011;49686;51.880;5.632;2022-07-23T11:13:30;3.92;;;1.80;;
63536;SDS011;49686;51.880;5.632;2022-07-23T11:16:10;2.85;;;2.20;;
63536;SDS011;49686;51.880;5.632;2022-07-23T11:18:57;4.25;;;2.20;;
63536;SDS011;49686;51.880;5.632;2022-07-23T11:21:44;3.58;;;1.92;;
63536;SDS011;49686;51.880;5.632;2022-07-23T11:24:18;3.33;;;2.15;;
63536;SDS011;49686;51.880;5.632;2022-07-23T11:26:49;3.30;;;1.63;;
63536;SDS011;49686;51.880;5.632;2022-07-23T11:32:22;2.33;;;1.75;;
63536;SDS011;49686;51.880;5.632;2022-07-23T11:34:54;2.60;;;1.67;;
63536;SDS011;49686;51.880;5.632;2022-07-23T11:37:34;3.05;;;1.50;;
63536;SDS011;49686;51.880;5.632;2022-07-23T11:40:05;3.50;;;1.70;;
63536;SDS011;49686;51.880;5.632;2022-07-23T11:42:36;7.60;;;1.90;;
63536;SDS011;49686;51.880;5.632;2022-07-23T11:45:06;3.03;;;1.90;;
63536;SDS011;49686;51.880;5.632;2022-07-23T11:47:34;2.53;;;1.85;;
63536;SDS011;49686;51.880;5.632;2022-07-23T11:50:03;5.07;;;1.67;;
63536;SDS011;49686;51.880;5.632;2022-07-23T11:52:32;3.15;;;2.00;;
63536;SDS011;49686;51.880;5.632;2022-07-23T11:55:00;2.30;;;1.67;;
63536;SDS011;49686;51.880;5.632;2022-07-23T11:57:29;2.50;;;1.55;;
63536;SDS011;49686;51.880;5.632;2022-07-23T12:00:00;3.88;;;1.70;;
63536;SDS011;49686;51.880;5.632;2022-07-23T12:02:32;3.65;;;1.60;;
63536;SDS011;49686;51.880;5.632;2022-07-23T12:04:59;4.38;;;1.67;;
63536;SDS011;49686;51.880;5.632;2022-07-23T12:07:27;4.65;;;2.00;;
63536;SDS011;49686;51.880;5.632;2022-07-23T12:09:56;2.67;;;1.73;;
63536;SDS011;49686;51.880;5.632;2022-07-23T12:12:25;3.22;;;1.83;;
63536;SDS011;49686;51.880;5.632;2022-07-23T12:14:53;2.95;;;1.90;;
63536;SDS011;49686;51.880;5.632;2022-07-23T12:17:28;4.47;;;1.98;;
63536;SDS011;49686;51.880;5.632;2022-07-23T12:19:58;4.50;;;1.90;;
63536;SDS011;49686;51.880;5.632;2022-07-23T12:22:26;4.07;;;2.05;;
63536;SDS011;49686;51.880;5.632;2022-07-23T12:25:01;2.47;;;1.95;;
63536;SDS011;49686;51.880;5.632;2022-07-23T12:27:30;3.47;;;2.03;;
63536;SDS011;49686;51.880;5.632;2022-07-23T12:29:57;3.22;;;1.90;;
63536;SDS011;49686;51.880;5.632;2022-07-23T12:32:27;3.78;;;1.67;;
63536;SDS011;49686;51.880;5.632;2022-07-23T12:35:04;3.05;;;2.17;;
63536;SDS011;49686;51.880;5.632;2022-07-23T12:37:34;5.40;;;1.95;;
63536;SDS011;49686;51.880;5.632;2022-07-23T12:40:18;2.78;;;2.17;;
63536;SDS011;49686;51.880;5.632;2022-07-23T12:42:49;5.50;;;2.28;;
63536;SDS011;49686;51.880;5.632;2022-07-23T12:45:17;3.05;;;2.10;;
63536;SDS011;49686;51.880;5.632;2022-07-23T12:47:56;2.63;;;1.75;;
63536;SDS011;49686;51.880;5.632;2022-07-23T12:50:31;2.88;;;1.80;;
63536;SDS011;49686;51.880;5.632;2022-07-23T12:53:14;6.32;;;2.10;;
63536;SDS011;49686;51.880;5.632;2022-07-23T12:55:50;3.17;;;1.77;;
63536;SDS011;49686;51.880;5.632;2022-07-23T12:58:44;5.97;;;1.67;;
63536;SDS011;49686;51.880;5.632;2022-07-23T13:01:26;3.25;;;1.80;;
63536;SDS011;49686;51.880;5.632;2022-07-23T13:03:56;2.67;;;1.67;;
63536;SDS011;49686;51.880;5.632;2022-07-23T13:06:26;3.10;;;1.75;;
63536;SDS011;49686;51.880;5.632;2022-07-23T13:08:54;2.83;;;1.67;;
63536;SDS011;49686;51.880;5.632;2022-07-23T13:11:22;2.10;;;1.90;;
63536;SDS011;49686;51.880;5.632;2022-07-23T13:13:50;3.60;;;1.60;;
63536;SDS011;49686;51.880;5.632;2022-07-23T13:16:17;4.70;;;1.73;;
63536;SDS011;49686;51.880;5.632;2022-07-23T13:18:46;8.75;;;1.83;;
63536;SDS011;49686;51.880;5.632;2022-07-23T13:21:16;3.15;;;1.70;;
63536;SDS011;49686;51.880;5.632;2022-07-23T13:23:44;4.57;;;1.98;;
63536;SDS011;49686;51.880;5.632;2022-07-23T13:26:10;2.08;;;1.55;;
63536;SDS011;49686;51.880;5.632;2022-07-23T13:28:39;3.40;;;1.77;;
63536;SDS011;49686;51.880;5.632;2022-07-23T13:31:05;3.40;;;1.95;;
63536;SDS011;49686;51.880;5.632;2022-07-23T13:33:34;4.25;;;2.10;;
63536;SDS011;49686;51.880;5.632;2022-07-23T13:36:03;4.57;;;1.98;;
63536;SDS011;49686;51.880;5.632;2022-07-23T13:38:32;3.55;;;1.85;;
63536;SDS011;49686;51.880;5.632;2022-07-23T13:41:00;2.97;;;2.03;;
63536;SDS011;49686;51.880;5.632;2022-07-23T13:43:27;4.20;;;1.98;;
63536;SDS011;49686;51.880;5.632;2022-07-23T13:46:01;4.30;;;2.05;;
63536;SDS011;49686;51.880;5.632;2022-07-23T13:48:29;1.52;;;1.42;;
63536;SDS011;49686;51.880;5.632;2022-07-23T13:50:56;3.20;;;1.70;;
63536;SDS011;49686;51.880;5.632;2022-07-23T13:53:23;3.33;;;2.20;;
63536;SDS011;49686;51.880;5.632;2022-07-23T13:55:53;7.65;;;2.10;;
63536;SDS011;49686;51.880;5.632;2022-07-23T13:58:21;3.88;;;1.80;;
63536;SDS011;49686;51.880;5.632;2022-07-23T14:00:50;5.88;;;2.30;;
63536;SDS011;49686;51.880;5.632;2022-07-23T14:03:20;3.38;;;1.98;;
63536;SDS011;49686;51.880;5.632;2022-07-23T14:05:48;4.60;;;2.15;;
63536;SDS011;49686;51.880;5.632;2022-07-23T14:08:15;3.45;;;2.10;;
63536;SDS011;49686;51.880;5.632;2022-07-23T14:10:42;5.60;;;2.43;;
63536;SDS011;49686;51.880;5.632;2022-07-23T14:13:10;3.53;;;2.20;;
63536;SDS011;49686;51.880;5.632;2022-07-23T14:15:38;3.78;;;2.40;;
63536;SDS011;49686;51.880;5.632;2022-07-23T14:18:05;4.55;;;2.08;;
63536;SDS011;49686;51.880;5.632;2022-07-23T14:20:33;6.40;;;2.70;;
63536;SDS011;49686;51.880;5.632;2022-07-23T14:23:00;3.30;;;2.20;;
63536;SDS011;49686;51.880;5.632;2022-07-23T14:25:31;2.88;;;2.00;;
63536;SDS011;49686;51.880;5.632;2022-07-23T14:27:59;4.88;;;2.35;;
63536;SDS011;49686;51.880;5.632;2022-07-23T14:30:27;3.33;;;1.90;;
63536;SDS011;49686;51.880;5.632;2022-07-23T14:33:01;3.03;;;2.17;;
63536;SDS011;49686;51.880;5.632;2022-07-23T14:35:27;3.13;;;2.05;;
63536;SDS011;49686;51.880;5.632;2022-07-23T14:37:54;2.50;;;1.73;;
63536;SDS011;49686;51.880;5.632;2022-07-23T14:40:22;6.20;;;2.13;;
63536;SDS011;49686;51.880;5.632;2022-07-23T14:42:49;2.53;;;1.75;;
63536;SDS011;49686;51.880;5.632;2022-07-23T14:45:16;2.15;;;1.77;;
63536;SDS011;49686;51.880;5.632;2022-07-23T14:47:46;3.63;;;2.17;;
63536;SDS011;49686;51.880;5.632;2022-07-23T14:50:13;3.90;;;2.42;;
63536;SDS011;49686;51.880;5.632;2022-07-23T14:52:40;3.25;;;1.85;;
63536;SDS011;49686;51.880;5.632;2022-07-23T14:55:08;4.75;;;2.67;;
63536;SDS011;49686;51.880;5.632;2022-07-23T14:57:35;4.07;;;1.98;;
63536;SDS011;49686;51.880;5.632;2022-07-23T15:00:02;3.53;;;1.90;;
63536;SDS011;49686;51.880;5.632;2022-07-23T15:02:30;4.47;;;2.00;;
63536;SDS011;49686;51.880;5.632;2022-07-23T15:04:59;6.03;;;1.70;;
63536;SDS011;49686;51.880;5.632;2022-07-23T15:07:26;2.55;;;2.25;;
63536;SDS011;49686;51.880;5.632;2022-07-23T15:09:54;6.88;;;1.95;;
63536;SDS011;49686;51.880;5.632;2022-07-23T15:12:21;3.63;;;2.20;;